createdAt,value
2019-01-28T00:02:23.193Z,6.65
2019-01-28T00:04:55.025Z,6.20
2019-01-28T00:07:27.942Z,7.33
2019-01-28T00:09:59.751Z,8.18
2019-01-28T00:12:31.585Z,5.70
2019-01-28T00:15:03.422Z,6.25
2019-01-28T00:17:36.876Z,6.87
2019-01-28T00:20:09.114Z,8.23
2019-01-28T00:22:40.949Z,7.65
2019-01-28T00:25:12.741Z,4.85
2019-01-28T00:27:44.564Z,5.42
2019-01-28T00:30:16.588Z,4.78
2019-01-28T00:32:48.421Z,6.95
2019-01-28T00:35:20.275Z,5.25
2019-01-28T00:37:52.102Z,6.92
2019-01-28T00:40:23.918Z,6.87
2019-01-28T00:42:55.724Z,6.15
2019-01-28T00:45:27.562Z,8.00
2019-01-28T00:47:59.363Z,5.92
2019-01-28T00:50:31.225Z,6.60
2019-01-28T00:53:03.421Z,5.83
2019-01-28T00:55:35.264Z,6.15
2019-01-28T00:58:07.098Z,4.80
2019-01-28T01:00:40.867Z,6.80
2019-01-28T01:03:12.677Z,4.92
2019-01-28T01:05:44.507Z,10.38
2019-01-28T01:08:16.328Z,5.75
2019-01-28T01:10:48.158Z,6.60
2019-01-28T01:13:19.953Z,5.75
2019-01-28T01:15:53.317Z,5.42
2019-01-28T01:18:25.125Z,4.47
2019-01-28T01:20:56.938Z,4.45
2019-01-28T01:23:28.768Z,4.10
2019-01-28T01:26:03.588Z,4.78
2019-01-28T01:28:35.391Z,5.00
2019-01-28T01:31:09.542Z,9.38
2019-01-28T01:33:43.677Z,5.55
2019-01-28T01:36:15.480Z,3.58
2019-01-28T01:38:47.307Z,4.45
2019-01-28T01:41:19.118Z,3.85
2019-01-28T01:43:50.958Z,5.55
2019-01-28T01:46:22.770Z,3.50
2019-01-28T01:48:54.609Z,4.95
2019-01-28T01:51:26.404Z,7.62
2019-01-28T01:53:58.220Z,4.20
2019-01-28T01:56:30.037Z,8.65
2019-01-28T01:59:01.870Z,4.53
2019-01-28T02:01:33.666Z,6.90
2019-01-28T02:04:05.621Z,3.22
2019-01-28T02:06:42.060Z,2.72
2019-01-28T02:09:13.889Z,3.65
2019-01-28T02:11:45.682Z,4.87
2019-01-28T02:14:18.290Z,3.65
2019-01-28T02:16:50.127Z,3.83
2019-01-28T02:19:21.922Z,4.25
2019-01-28T02:21:53.743Z,2.90
2019-01-28T02:24:25.735Z,3.87
2019-01-28T02:26:57.657Z,2.33
2019-01-28T02:29:29.474Z,3.20
2019-01-28T02:32:01.287Z,3.52
2019-01-28T02:34:33.184Z,3.42
2019-01-28T02:37:04.994Z,3.62
2019-01-28T02:39:36.858Z,5.03
2019-01-28T02:42:08.688Z,3.05
2019-01-28T02:44:41.573Z,3.65
2019-01-28T02:47:13.803Z,3.58
2019-01-28T02:49:47.154Z,3.00
2019-01-28T02:52:19.000Z,3.25
2019-01-28T02:54:50.789Z,2.52
2019-01-28T02:57:22.704Z,3.33
2019-01-28T02:59:54.509Z,3.20
2019-01-28T03:02:26.342Z,5.80
2019-01-28T03:05:00.606Z,3.52
2019-01-28T03:07:32.407Z,3.60
2019-01-28T03:10:04.689Z,5.25
2019-01-28T03:12:36.512Z,4.97
2019-01-28T03:15:10.286Z,4.30
2019-01-28T03:17:42.217Z,5.33
2019-01-28T03:20:14.883Z,6.12
2019-01-28T03:22:46.742Z,3.20
2019-01-28T03:25:24.193Z,4.80
2019-01-28T03:27:55.949Z,3.05
2019-01-28T03:30:27.784Z,3.35
2019-01-28T03:32:59.581Z,4.40
2019-01-28T03:35:31.403Z,2.02
2019-01-28T03:38:03.212Z,4.90
2019-01-28T03:40:35.041Z,3.27
2019-01-28T03:43:06.840Z,2.50
2019-01-28T03:45:38.665Z,2.80
2019-01-28T03:48:10.470Z,3.17
2019-01-28T03:50:42.359Z,2.67
2019-01-28T03:53:14.621Z,2.65
2019-01-28T03:55:46.458Z,4.17
2019-01-28T03:58:20.636Z,3.77
2019-01-28T04:00:52.432Z,2.25
2019-01-28T04:03:25.824Z,2.65
2019-01-28T04:05:57.643Z,2.60
2019-01-28T04:08:32.287Z,2.25
2019-01-28T04:11:04.174Z,1.65
2019-01-28T04:13:36.082Z,2.37
2019-01-28T04:16:07.876Z,1.80
2019-01-28T04:18:39.698Z,4.22
2019-01-28T04:21:11.491Z,2.22
2019-01-28T04:23:45.431Z,1.80
2019-01-28T04:26:16.993Z,1.55
2019-01-28T04:28:48.830Z,3.67
2019-01-28T04:31:20.633Z,3.25
2019-01-28T04:33:52.458Z,2.60
2019-01-28T04:36:24.260Z,3.65
2019-01-28T04:38:56.248Z,1.50
2019-01-28T04:41:28.057Z,3.05
2019-01-28T04:43:59.878Z,2.45
2019-01-28T04:46:31.683Z,1.60
2019-01-28T04:49:03.496Z,1.82
2019-01-28T04:51:35.329Z,2.60
2019-01-28T04:54:07.259Z,1.80
2019-01-28T04:56:41.622Z,3.65
2019-01-28T04:59:13.455Z,2.40
2019-01-28T05:01:45.270Z,2.55
2019-01-28T05:04:17.097Z,2.60
2019-01-28T05:06:48.916Z,2.20
2019-01-28T05:09:20.731Z,1.98
2019-01-28T05:11:52.538Z,3.25
2019-01-28T05:14:24.329Z,1.55
2019-01-28T05:16:56.183Z,2.47
2019-01-28T05:19:27.982Z,1.95
2019-01-28T05:21:59.810Z,1.30
2019-01-28T05:24:31.633Z,1.57
2019-01-28T05:27:03.449Z,6.05
2019-01-28T05:29:35.267Z,1.77
2019-01-28T05:32:07.356Z,3.27
2019-01-28T05:34:39.181Z,3.08
2019-01-28T05:37:11.786Z,1.85
2019-01-28T05:39:43.601Z,2.90
2019-01-28T05:42:18.408Z,2.05
2019-01-28T05:44:52.956Z,2.00
2019-01-28T05:47:24.784Z,1.95
2019-01-28T05:49:56.604Z,2.50
2019-01-28T05:52:28.414Z,1.95
2019-01-28T05:55:00.260Z,1.67
2019-01-28T05:57:32.044Z,1.80
2019-01-28T06:00:04.166Z,3.37
2019-01-28T06:02:38.791Z,10.20
2019-01-28T06:05:10.875Z,9.43
2019-01-28T06:07:42.677Z,3.45
2019-01-28T06:10:15.083Z,4.80
2019-01-28T06:12:48.412Z,3.65
2019-01-28T06:15:20.483Z,2.20
2019-01-28T06:17:52.278Z,3.98
2019-01-28T06:20:24.652Z,5.60
2019-01-28T06:22:58.093Z,4.10
2019-01-28T06:25:29.956Z,3.37
2019-01-28T06:28:01.781Z,2.80
2019-01-28T06:30:33.921Z,3.95
2019-01-28T06:33:05.791Z,2.12
2019-01-28T06:35:37.594Z,1.87
2019-01-28T06:38:09.406Z,2.40
2019-01-28T06:40:41.211Z,2.70
2019-01-28T06:43:13.050Z,6.87
2019-01-28T06:45:44.847Z,2.02
2019-01-28T06:48:16.681Z,2.75
2019-01-28T06:50:48.494Z,1.52
2019-01-28T06:53:20.490Z,1.37
2019-01-28T06:55:52.309Z,2.55
2019-01-28T06:58:24.141Z,1.77
2019-01-28T07:00:55.939Z,1.57
2019-01-28T07:03:27.763Z,2.10
2019-01-28T07:05:59.592Z,4.97
2019-01-28T07:08:31.418Z,1.65
2019-01-28T07:11:03.239Z,3.67
2019-01-28T07:13:35.063Z,2.20
2019-01-28T07:16:06.964Z,1.60
2019-01-28T07:18:38.792Z,2.33
2019-01-28T07:21:10.625Z,3.50
2019-01-28T07:23:42.442Z,2.35
2019-01-28T07:26:14.274Z,2.52
2019-01-28T07:28:47.161Z,3.40
2019-01-28T07:31:18.997Z,1.90
2019-01-28T07:33:50.821Z,2.37
2019-01-28T07:36:22.806Z,2.95
2019-01-28T07:38:54.639Z,1.95
2019-01-28T07:41:29.430Z,2.33
2019-01-28T07:44:02.302Z,1.80
2019-01-28T07:46:34.111Z,6.95
2019-01-28T07:49:05.951Z,1.60
2019-01-28T07:51:41.050Z,2.87
2019-01-28T07:54:12.885Z,2.30
2019-01-28T07:56:44.758Z,3.70
2019-01-28T07:59:16.671Z,3.25
2019-01-28T08:01:48.429Z,2.00
2019-01-28T08:04:20.237Z,2.33
2019-01-28T08:06:59.369Z,2.08
2019-01-28T08:09:25.623Z,2.20
2019-01-28T08:11:57.421Z,1.87
2019-01-28T08:14:31.082Z,2.40
2019-01-28T08:17:05.010Z,2.20
2019-01-28T08:19:36.910Z,2.70
2019-01-28T08:22:12.497Z,2.00
2019-01-28T08:24:47.536Z,2.70
2019-01-28T08:27:24.880Z,2.10
2019-01-28T08:30:04.123Z,2.45
2019-01-28T08:32:37.126Z,4.53
2019-01-28T08:35:09.570Z,1.60
2019-01-28T08:37:43.052Z,2.65
2019-01-28T08:40:15.348Z,1.92
2019-01-28T08:42:50.260Z,2.62
2019-01-28T08:45:20.729Z,4.35
2019-01-28T08:47:55.058Z,3.98
2019-01-28T08:50:30.007Z,3.02
2019-01-28T08:53:04.966Z,2.20
2019-01-28T08:55:39.847Z,2.33
2019-01-28T08:58:15.055Z,3.00
2019-01-28T09:00:46.881Z,2.55
2019-01-28T09:03:18.781Z,3.17
2019-01-28T09:05:50.668Z,3.70
2019-01-28T09:08:24.081Z,2.85
2019-01-28T09:11:00.609Z,3.17
2019-01-28T09:13:32.475Z,2.17
2019-01-28T09:16:08.285Z,3.85
2019-01-28T09:18:40.200Z,4.03
2019-01-28T09:21:12.018Z,4.03
2019-01-28T09:23:43.854Z,3.85
2019-01-28T09:26:17.163Z,2.05
2019-01-28T09:28:50.266Z,2.45
2019-01-28T09:31:22.214Z,4.33
2019-01-28T09:33:56.406Z,2.20
2019-01-28T09:36:30.577Z,1.80
2019-01-28T09:39:04.057Z,1.82
2019-01-28T09:41:36.941Z,2.50
2019-01-28T09:44:08.962Z,1.87
2019-01-28T09:46:42.445Z,2.50
2019-01-28T09:49:16.092Z,5.55
2019-01-28T09:51:49.423Z,1.67
2019-01-28T09:54:21.277Z,2.12
2019-01-28T09:56:55.843Z,2.58
2019-01-28T09:59:35.226Z,2.35
2019-01-28T10:02:09.053Z,2.10
2019-01-28T10:04:42.198Z,2.85
2019-01-28T10:07:14.046Z,2.65
2019-01-28T10:09:45.854Z,1.45
2019-01-28T10:12:17.897Z,1.65
2019-01-28T10:14:53.474Z,1.72
2019-01-28T10:17:25.269Z,2.30
2019-01-28T10:19:57.083Z,1.92
2019-01-28T10:22:28.996Z,1.85
2019-01-28T10:25:02.791Z,2.83
2019-01-28T10:27:41.672Z,3.55
2019-01-28T10:30:17.654Z,2.85
2019-01-28T10:32:49.497Z,2.60
2019-01-28T10:35:23.872Z,1.70
2019-01-28T10:38:01.978Z,2.87
2019-01-28T10:40:38.436Z,1.95
2019-01-28T10:43:11.123Z,2.85
2019-01-28T10:45:43.929Z,1.60
2019-01-28T10:48:15.748Z,2.58
2019-01-28T10:50:47.743Z,1.55
2019-01-28T10:53:19.639Z,2.30
2019-01-28T10:55:52.606Z,3.12
2019-01-28T10:58:24.416Z,1.77
2019-01-28T11:00:56.346Z,1.82
2019-01-28T11:03:29.821Z,2.83
2019-01-28T11:06:03.767Z,2.80
2019-01-28T11:08:35.605Z,3.42
2019-01-28T11:11:42.468Z,6.28
2019-01-28T11:14:14.461Z,2.55
2019-01-28T11:16:49.382Z,3.00
2019-01-28T11:19:21.399Z,2.75
2019-01-28T11:21:53.243Z,2.30
2019-01-28T11:24:30.079Z,2.67
2019-01-28T11:27:03.038Z,1.82
2019-01-28T11:29:39.274Z,2.92
2019-01-28T11:32:11.079Z,1.90
2019-01-28T11:34:50.763Z,3.10
2019-01-28T11:37:22.672Z,1.50
2019-01-28T11:39:57.635Z,1.60
2019-01-28T11:42:31.409Z,2.10
2019-01-28T11:45:24.867Z,2.10
2019-01-28T11:47:59.133Z,2.65
2019-01-28T11:50:31.013Z,1.20
2019-01-28T11:53:02.877Z,3.35
2019-01-28T11:55:34.682Z,2.42
2019-01-28T11:58:06.958Z,1.98
2019-01-28T12:01:01.084Z,2.45
2019-01-28T12:03:33.025Z,1.65
2019-01-28T12:06:06.419Z,2.25
2019-01-28T12:24:28.077Z,5.33
2019-01-28T12:27:04.404Z,1.90
2019-01-28T12:29:38.648Z,2.12
2019-01-28T12:32:12.557Z,2.33
2019-01-28T12:34:44.424Z,4.08
2019-01-28T12:37:17.830Z,2.35
2019-01-28T12:43:48.172Z,2.17
2019-01-28T12:46:30.974Z,4.45
2019-01-28T12:51:58.802Z,8.03
2019-01-28T12:55:03.366Z,3.12
2019-01-28T12:57:41.135Z,2.72
2019-01-28T13:00:30.015Z,3.90
2019-01-28T13:04:05.879Z,5.60
2019-01-28T13:06:40.579Z,3.67
2019-01-28T13:09:33.593Z,7.53
2019-01-28T13:14:57.785Z,3.10
2019-01-28T13:17:41.222Z,3.47
2019-01-28T13:20:21.452Z,3.55
2019-01-28T13:23:04.918Z,3.08
2019-01-28T13:25:39.882Z,5.80
2019-01-28T13:28:19.772Z,2.70
2019-01-28T13:30:57.151Z,2.90
2019-01-28T13:33:31.318Z,3.70
2019-01-28T13:39:05.015Z,2.65
2019-01-28T13:41:52.892Z,2.60
2019-01-28T13:44:46.793Z,4.08
2019-01-28T13:48:12.825Z,3.75
2019-01-28T13:50:25.041Z,3.55
2019-01-28T14:00:27.445Z,1.80
2019-01-28T14:03:03.846Z,2.42
2019-01-28T14:05:38.799Z,2.50
2019-01-28T14:08:13.590Z,1.80
2019-01-28T14:10:53.989Z,3.55
2019-01-28T14:13:25.816Z,2.42
2019-01-28T14:15:57.739Z,2.85
2019-01-28T14:18:29.567Z,1.95
2019-01-28T14:21:05.576Z,2.50
2019-01-28T14:23:37.396Z,2.27
2019-01-28T14:26:09.237Z,1.55
2019-01-28T14:28:41.130Z,3.40
2019-01-28T14:31:14.137Z,1.80
2019-01-28T14:33:45.994Z,2.60
2019-01-28T14:36:17.850Z,2.90
2019-01-28T14:38:49.672Z,1.95
2019-01-28T14:41:21.553Z,5.10
2019-01-28T14:43:54.359Z,5.28
2019-01-28T14:46:26.240Z,5.75
2019-01-28T14:48:58.286Z,3.75
2019-01-28T14:51:30.815Z,6.12
2019-01-28T14:54:02.670Z,5.00
2019-01-28T14:56:34.705Z,3.67
2019-01-28T14:59:07.095Z,2.85
2019-01-28T15:01:38.925Z,3.08
2019-01-28T15:04:12.850Z,2.25
2019-01-28T15:06:44.714Z,1.82
2019-01-28T15:09:16.660Z,2.70
2019-01-28T15:11:48.596Z,3.15
2019-01-28T15:14:21.485Z,2.10
2019-01-28T15:16:53.324Z,1.47
2019-01-28T15:19:25.238Z,2.02
2019-01-28T15:21:57.097Z,2.33
2019-01-28T15:24:28.945Z,2.75
2019-01-28T15:27:00.792Z,3.58
2019-01-28T15:29:32.715Z,1.90
2019-01-28T15:32:04.605Z,2.35
2019-01-28T15:34:36.491Z,1.82
2019-01-28T15:37:08.404Z,2.55
2019-01-28T15:39:40.255Z,1.87
2019-01-28T15:42:14.600Z,2.58
2019-01-28T15:44:46.438Z,2.20
2019-01-28T15:47:18.328Z,2.47
2019-01-28T15:49:50.284Z,2.35
2019-01-28T15:52:22.145Z,2.10
2019-01-28T15:54:53.994Z,2.67
2019-01-28T15:57:25.888Z,2.50
2019-01-28T15:59:57.809Z,3.00
2019-01-28T16:02:29.698Z,3.37
2019-01-28T16:05:03.387Z,2.83
2019-01-28T16:07:38.191Z,4.30
2019-01-28T16:10:18.390Z,3.22
2019-01-28T16:12:52.797Z,2.90
2019-01-28T16:15:29.078Z,4.70
2019-01-28T16:18:00.976Z,2.67
2019-01-28T16:20:35.434Z,2.17
2019-01-28T16:23:10.874Z,4.67
2019-01-28T16:25:42.738Z,3.40
2019-01-28T16:28:14.630Z,2.42
2019-01-28T16:30:46.536Z,3.60
2019-01-28T16:33:20.010Z,2.60
2019-01-28T16:35:51.953Z,3.35
2019-01-28T16:38:23.860Z,2.58
2019-01-28T16:40:55.724Z,3.15
2019-01-28T16:43:28.809Z,3.85
2019-01-28T16:47:13.375Z,2.50
2019-01-28T16:49:48.631Z,3.15
2019-01-28T16:52:20.630Z,4.30
2019-01-28T16:54:53.566Z,3.33
2019-01-28T16:57:26.996Z,3.17
2019-01-28T16:59:58.879Z,3.62
2019-01-28T17:02:30.695Z,5.65
2019-01-28T17:05:03.660Z,4.12
2019-01-28T17:07:38.566Z,3.85
2019-01-28T17:10:11.346Z,3.92
2019-01-28T17:12:43.175Z,5.12
2019-01-28T17:15:16.458Z,5.22
2019-01-28T17:17:48.334Z,4.15
2019-01-28T17:20:25.837Z,5.33
2019-01-28T17:22:57.993Z,6.03
2019-01-28T17:25:36.706Z,5.62
2019-01-28T17:28:10.837Z,7.12
2019-01-28T17:30:45.760Z,4.95
2019-01-28T17:33:18.540Z,5.70
2019-01-28T17:35:50.272Z,5.47
2019-01-28T17:38:22.093Z,7.50
2019-01-28T17:40:53.942Z,6.30
2019-01-28T17:43:25.906Z,7.42
2019-01-28T17:45:59.816Z,7.85
2019-01-28T17:48:33.188Z,20.15
2019-01-28T17:51:08.083Z,11.25
2019-01-28T17:53:40.925Z,10.20
2019-01-28T17:56:12.768Z,8.88
2019-01-28T17:58:44.666Z,6.60
2019-01-28T18:01:16.686Z,6.05
2019-01-28T18:03:48.553Z,6.80
2019-01-28T18:06:20.404Z,7.08
2019-01-28T18:08:54.754Z,6.28
2019-01-28T18:11:26.709Z,8.73
2019-01-28T18:14:01.609Z,7.12
2019-01-28T18:16:37.649Z,12.00
2019-01-28T18:19:09.565Z,7.30
2019-01-28T18:21:41.440Z,8.90
2019-01-28T18:24:13.339Z,9.95
2019-01-28T18:26:51.347Z,7.80
2019-01-28T18:29:26.293Z,13.53
2019-01-28T18:32:02.280Z,9.80
2019-01-28T18:34:35.458Z,10.45
2019-01-28T18:37:10.369Z,13.13
2019-01-28T18:39:44.689Z,9.03
2019-01-28T18:42:27.116Z,11.00
2019-01-28T18:45:03.301Z,8.73
2019-01-28T18:47:35.204Z,8.28
2019-01-28T18:50:17.083Z,10.00
2019-01-28T18:52:51.870Z,9.83
2019-01-28T18:55:25.656Z,14.98
2019-01-28T18:57:58.236Z,17.37
2019-01-28T19:00:33.286Z,14.68
2019-01-28T19:03:13.232Z,19.07
2019-01-28T19:06:17.921Z,22.13
2019-01-28T19:09:18.880Z,16.35
2019-01-28T19:12:05.077Z,21.25
2019-01-28T19:14:57.926Z,17.40
2019-01-28T19:17:58.331Z,14.10
2019-01-28T19:20:53.953Z,19.57
2019-01-28T19:23:26.219Z,13.93
2019-01-28T19:25:58.101Z,13.30
2019-01-28T19:28:35.420Z,16.93
2019-01-28T19:31:16.409Z,12.00
2019-01-28T19:33:58.373Z,17.67
2019-01-28T19:36:24.129Z,15.35
2019-01-28T19:38:56.014Z,18.65
2019-01-28T19:41:31.046Z,15.08
2019-01-28T19:44:08.311Z,15.68
2019-01-28T19:46:41.828Z,13.95
2019-01-28T19:49:13.753Z,18.15
2019-01-28T19:51:45.791Z,19.02
2019-01-28T19:54:23.901Z,17.57
2019-01-28T19:56:55.926Z,17.57
2019-01-28T19:59:29.017Z,18.55
2019-01-28T20:02:07.697Z,18.27
2019-01-28T20:04:50.178Z,13.28
2019-01-28T20:07:37.207Z,16.12
2019-01-28T20:10:09.646Z,12.58
2019-01-28T20:12:43.218Z,18.98
2019-01-28T20:15:20.484Z,15.40
2019-01-28T20:17:52.474Z,15.78
2019-01-28T20:20:24.339Z,17.82
2019-01-28T20:22:59.142Z,15.28
2019-01-28T20:25:35.625Z,12.35
2019-01-28T20:28:07.704Z,13.03
2019-01-28T20:30:41.907Z,14.63
2019-01-28T20:33:13.823Z,13.43
2019-01-28T20:35:48.748Z,12.37
2019-01-28T20:38:24.246Z,12.68
2019-01-28T20:40:56.131Z,11.60
2019-01-28T20:43:29.594Z,13.38
2019-01-28T20:46:04.771Z,12.47
2019-01-28T20:48:36.807Z,14.43
2019-01-28T20:51:13.864Z,14.15
2019-01-28T20:53:45.767Z,16.05
2019-01-28T20:56:19.729Z,15.25
2019-01-28T20:58:51.567Z,20.32
2019-01-28T21:01:26.036Z,18.20
2019-01-28T21:03:57.895Z,11.18
2019-01-28T21:06:31.415Z,13.60
2019-01-28T21:09:04.842Z,16.32
2019-01-28T21:11:37.358Z,14.45
2019-01-28T21:14:09.219Z,16.23
2019-01-28T21:16:45.841Z,11.22
2019-01-28T21:19:17.733Z,11.93
2019-01-28T21:21:49.623Z,11.15
2019-01-28T21:24:21.900Z,13.53
2019-01-28T21:26:53.785Z,13.75
2019-01-28T21:29:28.944Z,11.60
2019-01-28T21:32:04.947Z,11.10
2019-01-28T21:34:41.782Z,9.43
2019-01-28T21:37:29.927Z,12.88
2019-01-28T21:40:04.559Z,8.48
2019-01-28T21:42:39.472Z,12.05
2019-01-28T21:45:15.893Z,11.45
2019-01-28T21:47:56.820Z,11.08
2019-01-28T21:50:31.202Z,8.20
2019-01-28T21:53:07.211Z,17.32
2019-01-28T21:55:41.814Z,13.55
2019-01-28T21:58:13.659Z,15.30
2019-01-28T22:00:45.604Z,10.75
2019-01-28T22:03:21.298Z,11.60
2019-01-28T22:05:52.243Z,8.58
2019-01-28T22:08:26.004Z,13.05
2019-01-28T22:11:00.775Z,10.72
2019-01-28T22:13:32.609Z,11.85
2019-01-28T22:16:04.543Z,11.15
2019-01-28T22:18:36.379Z,9.85
2019-01-28T22:21:15.066Z,8.55
2019-01-28T22:23:46.645Z,12.75
2019-01-28T22:26:21.411Z,11.05
2019-01-28T22:28:55.730Z,11.30
2019-01-28T22:31:30.513Z,11.05
2019-01-28T22:34:02.558Z,9.25
2019-01-28T22:36:40.828Z,10.15
2019-01-28T22:39:15.613Z,13.95
2019-01-28T22:41:47.576Z,10.55
2019-01-28T22:44:20.717Z,7.65
2019-01-28T22:46:55.019Z,10.88
2019-01-28T22:49:28.938Z,12.78
2019-01-28T22:52:07.776Z,11.90
2019-01-28T22:54:38.040Z,14.78
2019-01-28T22:57:11.252Z,8.40
2019-01-28T22:59:45.146Z,11.88
2019-01-28T23:02:18.211Z,11.68
2019-01-28T23:04:50.052Z,11.68
2019-01-28T23:07:21.912Z,11.90
2019-01-28T23:09:56.817Z,11.20
2019-01-28T23:12:29.985Z,11.50
2019-01-28T23:15:16.677Z,11.85
2019-01-28T23:17:50.578Z,15.63
2019-01-28T23:20:22.402Z,10.90
2019-01-28T23:22:54.278Z,12.33
2019-01-28T23:25:30.316Z,9.53
2019-01-28T23:28:03.456Z,13.13
2019-01-28T23:30:38.209Z,11.00
2019-01-28T23:33:10.508Z,16.07
2019-01-28T23:35:45.366Z,9.60
2019-01-28T23:38:17.204Z,11.88
2019-01-28T23:40:52.095Z,10.43
2019-01-28T23:43:23.941Z,11.25
2019-01-28T23:45:55.802Z,11.40
2019-01-28T23:48:32.137Z,12.55
2019-01-28T23:51:06.988Z,9.95
2019-01-28T23:53:41.777Z,11.12
2019-01-28T23:56:13.663Z,9.85
2019-01-28T23:58:49.876Z,12.45
